sensor_id;sensor_type;location;lat;lon;timestamp;P1;durP1;ratioP1;P2;durP2;ratioP2
68947;SDS011;55996;49.546;7.400;2023-07-13T00:01:29;3.10;;;2.30;;
68947;SDS011;55996;49.546;7.400;2023-07-13T00:03:56;3.50;;;2.37;;
68947;SDS011;55996;49.546;7.400;2023-07-13T00:06:22;4.00;;;2.07;;
68947;SDS011;55996;49.546;7.400;2023-07-13T00:08:47;3.63;;;2.33;;
68947;SDS011;55996;49.546;7.400;2023-07-13T00:11:14;3.77;;;2.10;;
68947;SDS011;55996;49.546;7.400;2023-07-13T00:13:40;3.43;;;2.33;;
68947;SDS011;55996;49.546;7.400;2023-07-13T00:16:07;8.17;;;2.40;;
68947;SDS011;55996;49.546;7.400;2023-07-13T00:18:34;5.43;;;2.20;;
68947;SDS011;55996;49.546;7.400;2023-07-13T00:20:59;3.20;;;2.20;;
68947;SDS011;55996;49.546;7.400;2023-07-13T00:23:30;2.83;;;2.00;;
68947;SDS011;55996;49.546;7.400;2023-07-13T00:26:03;3.33;;;2.00;;
68947;SDS011;55996;49.546;7.400;2023-07-13T00:28:30;3.27;;;2.30;;
68947;SDS011;55996;49.546;7.400;2023-07-13T00:30:56;3.33;;;2.30;;
68947;SDS011;55996;49.546;7.400;2023-07-13T00:33:21;3.70;;;2.20;;
68947;SDS011;55996;49.546;7.400;2023-07-13T00:35:48;3.97;;;2.43;;
68947;SDS011;55996;49.546;7.400;2023-07-13T00:38:14;3.40;;;2.30;;
68947;SDS011;55996;49.546;7.400;2023-07-13T00:40:39;4.93;;;2.10;;
68947;SDS011;55996;49.546;7.400;2023-07-13T00:43:15;3.33;;;2.30;;
68947;SDS011;55996;49.546;7.400;2023-07-13T00:48:09;3.07;;;2.30;;
68947;SDS011;55996;49.546;7.400;2023-07-13T00:50:36;3.23;;;2.37;;
68947;SDS011;55996;49.546;7.400;2023-07-13T00:53:02;6.70;;;2.50;;
68947;SDS011;55996;49.546;7.400;2023-07-13T00:55:28;4.77;;;2.40;;
68947;SDS011;55996;49.546;7.400;2023-07-13T00:57:54;4.17;;;2.80;;
68947;SDS011;55996;49.546;7.400;2023-07-13T01:00:20;4.07;;;2.33;;
68947;SDS011;55996;49.546;7.400;2023-07-13T01:02:48;6.00;;;2.70;;
68947;SDS011;55996;49.546;7.400;2023-07-13T01:05:18;3.43;;;2.60;;
68947;SDS011;55996;49.546;7.400;2023-07-13T01:07:45;2.50;;;2.30;;
68947;SDS011;55996;49.546;7.400;2023-07-13T01:10:13;3.93;;;2.97;;
68947;SDS011;55996;49.546;7.400;2023-07-13T01:12:39;4.07;;;2.47;;
68947;SDS011;55996;49.546;7.400;2023-07-13T01:15:05;5.17;;;2.63;;
68947;SDS011;55996;49.546;7.400;2023-07-13T01:17:51;4.60;;;2.40;;
68947;SDS011;55996;49.546;7.400;2023-07-13T01:20:16;3.80;;;2.50;;
68947;SDS011;55996;49.546;7.400;2023-07-13T01:22:42;5.87;;;2.50;;
68947;SDS011;55996;49.546;7.400;2023-07-13T01:25:08;5.47;;;2.83;;
68947;SDS011;55996;49.546;7.400;2023-07-13T01:27:33;2.77;;;2.27;;
68947;SDS011;55996;49.546;7.400;2023-07-13T01:29:59;2.50;;;2.30;;
68947;SDS011;55996;49.546;7.400;2023-07-13T01:32:29;2.80;;;2.07;;
68947;SDS011;55996;49.546;7.400;2023-07-13T01:34:56;5.57;;;2.40;;
68947;SDS011;55996;49.546;7.400;2023-07-13T01:37:22;3.50;;;2.50;;
68947;SDS011;55996;49.546;7.400;2023-07-13T01:39:49;4.00;;;2.70;;
68947;SDS011;55996;49.546;7.400;2023-07-13T01:42:14;4.60;;;2.20;;
68947;SDS011;55996;49.546;7.400;2023-07-13T01:44:40;3.27;;;2.27;;
68947;SDS011;55996;49.546;7.400;2023-07-13T01:47:06;4.47;;;2.20;;
68947;SDS011;55996;49.546;7.400;2023-07-13T01:49:31;4.20;;;2.40;;
68947;SDS011;55996;49.546;7.400;2023-07-13T01:51:57;3.73;;;2.70;;
68947;SDS011;55996;49.546;7.400;2023-07-13T01:54:22;4.13;;;2.20;;
68947;SDS011;55996;49.546;7.400;2023-07-13T01:56:48;5.60;;;2.90;;
68947;SDS011;55996;49.546;7.400;2023-07-13T01:59:14;2.90;;;2.60;;
68947;SDS011;55996;49.546;7.400;2023-07-13T02:01:39;3.47;;;2.50;;
68947;SDS011;55996;49.546;7.400;2023-07-13T02:04:05;2.50;;;2.30;;
68947;SDS011;55996;49.546;7.400;2023-07-13T02:06:30;3.80;;;2.90;;
68947;SDS011;55996;49.546;7.400;2023-07-13T02:08:56;2.60;;;2.40;;
68947;SDS011;55996;49.546;7.400;2023-07-13T02:11:22;3.30;;;2.70;;
68947;SDS011;55996;49.546;7.400;2023-07-13T02:13:48;2.50;;;2.30;;
68947;SDS011;55996;49.546;7.400;2023-07-13T02:16:13;4.43;;;2.73;;
68947;SDS011;55996;49.546;7.400;2023-07-13T02:18:39;4.53;;;2.60;;
68947;SDS011;55996;49.546;7.400;2023-07-13T02:21:04;4.43;;;2.27;;
68947;SDS011;55996;49.546;7.400;2023-07-13T02:23:30;3.83;;;2.70;;
68947;SDS011;55996;49.546;7.400;2023-07-13T02:25:56;2.60;;;2.40;;
68947;SDS011;55996;49.546;7.400;2023-07-13T02:28:22;2.80;;;2.60;;
68947;SDS011;55996;49.546;7.400;2023-07-13T02:30:47;4.37;;;2.70;;
68947;SDS011;55996;49.546;7.400;2023-07-13T02:33:12;5.53;;;2.60;;
68947;SDS011;55996;49.546;7.400;2023-07-13T02:35:38;2.83;;;2.63;;
68947;SDS011;55996;49.546;7.400;2023-07-13T02:38:03;2.77;;;2.57;;
68947;SDS011;55996;49.546;7.400;2023-07-13T02:40:29;3.87;;;2.60;;
68947;SDS011;55996;49.546;7.400;2023-07-13T02:42:58;3.07;;;2.53;;
68947;SDS011;55996;49.546;7.400;2023-07-13T02:45:23;3.57;;;2.70;;
68947;SDS011;55996;49.546;7.400;2023-07-13T02:47:49;3.17;;;2.50;;
68947;SDS011;55996;49.546;7.400;2023-07-13T02:50:14;4.87;;;2.80;;
68947;SDS011;55996;49.546;7.400;2023-07-13T02:52:39;3.97;;;2.70;;
68947;SDS011;55996;49.546;7.400;2023-07-13T02:55:05;4.97;;;2.90;;
68947;SDS011;55996;49.546;7.400;2023-07-13T02:57:31;4.80;;;2.90;;
68947;SDS011;55996;49.546;7.400;2023-07-13T02:59:58;5.87;;;2.97;;
68947;SDS011;55996;49.546;7.400;2023-07-13T03:02:24;3.17;;;2.50;;
68947;SDS011;55996;49.546;7.400;2023-07-13T03:04:50;3.60;;;2.80;;
68947;SDS011;55996;49.546;7.400;2023-07-13T03:07:15;5.07;;;2.83;;
68947;SDS011;55996;49.546;7.400;2023-07-13T03:09:41;3.03;;;2.70;;
68947;SDS011;55996;49.546;7.400;2023-07-13T03:12:06;2.73;;;2.37;;
68947;SDS011;55996;49.546;7.400;2023-07-13T03:14:32;2.77;;;2.50;;
68947;SDS011;55996;49.546;7.400;2023-07-13T03:16:58;3.17;;;2.87;;
68947;SDS011;55996;49.546;7.400;2023-07-13T03:19:23;3.20;;;2.90;;
68947;SDS011;55996;49.546;7.400;2023-07-13T03:21:49;3.70;;;2.50;;
68947;SDS011;55996;49.546;7.400;2023-07-13T03:24:14;4.90;;;2.60;;
68947;SDS011;55996;49.546;7.400;2023-07-13T03:26:40;3.90;;;2.57;;
68947;SDS011;55996;49.546;7.400;2023-07-13T03:29:05;4.63;;;3.07;;
68947;SDS011;55996;49.546;7.400;2023-07-13T03:31:33;5.43;;;2.90;;
68947;SDS011;55996;49.546;7.400;2023-07-13T03:34:00;5.30;;;2.77;;
68947;SDS011;55996;49.546;7.400;2023-07-13T03:36:26;4.57;;;2.80;;
68947;SDS011;55996;49.546;7.400;2023-07-13T03:38:55;4.83;;;2.63;;
68947;SDS011;55996;49.546;7.400;2023-07-13T03:41:23;4.43;;;2.70;;
68947;SDS011;55996;49.546;7.400;2023-07-13T03:43:50;4.47;;;2.60;;
68947;SDS011;55996;49.546;7.400;2023-07-13T03:46:16;6.47;;;3.17;;
68947;SDS011;55996;49.546;7.400;2023-07-13T03:48:43;3.87;;;2.47;;
68947;SDS011;55996;49.546;7.400;2023-07-13T03:51:10;4.63;;;2.87;;
68947;SDS011;55996;49.546;7.400;2023-07-13T03:53:38;3.17;;;2.57;;
68947;SDS011;55996;49.546;7.400;2023-07-13T03:56:05;3.63;;;2.70;;
68947;SDS011;55996;49.546;7.400;2023-07-13T03:58:32;5.43;;;2.87;;
68947;SDS011;55996;49.546;7.400;2023-07-13T04:01:03;3.37;;;2.80;;
68947;SDS011;55996;49.546;7.400;2023-07-13T04:03:30;2.90;;;2.70;;
68947;SDS011;55996;49.546;7.400;2023-07-13T04:05:58;2.93;;;2.73;;
68947;SDS011;55996;49.546;7.400;2023-07-13T04:08:30;3.40;;;2.40;;
68947;SDS011;55996;49.546;7.400;2023-07-13T04:10:57;4.83;;;2.60;;
68947;SDS011;55996;49.546;7.400;2023-07-13T04:13:24;2.87;;;2.67;;
68947;SDS011;55996;49.546;7.400;2023-07-13T04:15:50;3.23;;;2.60;;
68947;SDS011;55996;49.546;7.400;2023-07-13T04:18:15;3.23;;;2.70;;
68947;SDS011;55996;49.546;7.400;2023-07-13T04:20:41;3.77;;;2.73;;
68947;SDS011;55996;49.546;7.400;2023-07-13T04:23:06;4.30;;;3.10;;
68947;SDS011;55996;49.546;7.400;2023-07-13T04:25:31;5.27;;;2.73;;
68947;SDS011;55996;49.546;7.400;2023-07-13T04:27:57;6.90;;;2.83;;
68947;SDS011;55996;49.546;7.400;2023-07-13T04:30:22;3.37;;;2.57;;
68947;SDS011;55996;49.546;7.400;2023-07-13T04:32:50;4.23;;;3.00;;
68947;SDS011;55996;49.546;7.400;2023-07-13T04:35:17;3.60;;;3.27;;
68947;SDS011;55996;49.546;7.400;2023-07-13T04:37:46;3.10;;;2.77;;
68947;SDS011;55996;49.546;7.400;2023-07-13T04:40:15;3.23;;;2.60;;
68947;SDS011;55996;49.546;7.400;2023-07-13T04:42:41;3.57;;;2.80;;
68947;SDS011;55996;49.546;7.400;2023-07-13T04:45:07;3.90;;;2.90;;
68947;SDS011;55996;49.546;7.400;2023-07-13T04:47:32;4.30;;;2.83;;
68947;SDS011;55996;49.546;7.400;2023-07-13T04:49:58;4.07;;;2.80;;
68947;SDS011;55996;49.546;7.400;2023-07-13T04:52:23;4.10;;;2.70;;
68947;SDS011;55996;49.546;7.400;2023-07-13T04:54:49;3.27;;;2.67;;
68947;SDS011;55996;49.546;7.400;2023-07-13T04:57:15;3.53;;;3.07;;
68947;SDS011;55996;49.546;7.400;2023-07-13T04:59:40;4.80;;;2.70;;
68947;SDS011;55996;49.546;7.400;2023-07-13T05:02:06;3.67;;;2.70;;
68947;SDS011;55996;49.546;7.400;2023-07-13T05:04:31;4.97;;;2.67;;
68947;SDS011;55996;49.546;7.400;2023-07-13T05:06:57;4.13;;;2.80;;
68947;SDS011;55996;49.546;7.400;2023-07-13T05:09:24;5.97;;;2.77;;
68947;SDS011;55996;49.546;7.400;2023-07-13T05:11:49;4.17;;;3.00;;
68947;SDS011;55996;49.546;7.400;2023-07-13T05:14:15;5.10;;;3.23;;
68947;SDS011;55996;49.546;7.400;2023-07-13T05:16:41;3.57;;;2.60;;
68947;SDS011;55996;49.546;7.400;2023-07-13T05:19:07;3.73;;;2.80;;
68947;SDS011;55996;49.546;7.400;2023-07-13T05:21:33;4.77;;;2.87;;
68947;SDS011;55996;49.546;7.400;2023-07-13T05:23:59;5.77;;;3.20;;
68947;SDS011;55996;49.546;7.400;2023-07-13T05:26:24;4.13;;;2.60;;
68947;SDS011;55996;49.546;7.400;2023-07-13T05:28:50;5.30;;;2.70;;
68947;SDS011;55996;49.546;7.400;2023-07-13T05:31:15;3.90;;;3.10;;
68947;SDS011;55996;49.546;7.400;2023-07-13T05:33:41;2.87;;;2.67;;
68947;SDS011;55996;49.546;7.400;2023-07-13T05:36:06;3.20;;;2.50;;
68947;SDS011;55996;49.546;7.400;2023-07-13T05:38:32;4.10;;;2.80;;
68947;SDS011;55996;49.546;7.400;2023-07-13T05:40:58;4.80;;;2.80;;
68947;SDS011;55996;49.546;7.400;2023-07-13T05:43:23;4.33;;;2.80;;
68947;SDS011;55996;49.546;7.400;2023-07-13T05:45:50;4.00;;;2.90;;
68947;SDS011;55996;49.546;7.400;2023-07-13T05:48:17;5.70;;;2.90;;
68947;SDS011;55996;49.546;7.400;2023-07-13T05:50:43;7.00;;;2.67;;
68947;SDS011;55996;49.546;7.400;2023-07-13T05:53:08;3.37;;;3.00;;
68947;SDS011;55996;49.546;7.400;2023-07-13T05:55:34;5.47;;;2.83;;
68947;SDS011;55996;49.546;7.400;2023-07-13T05:58:00;7.17;;;2.77;;
68947;SDS011;55996;49.546;7.400;2023-07-13T06:00:26;5.60;;;2.70;;
68947;SDS011;55996;49.546;7.400;2023-07-13T06:02:52;10.07;;;3.33;;
68947;SDS011;55996;49.546;7.400;2023-07-13T06:05:17;7.17;;;2.90;;
68947;SDS011;55996;49.546;7.400;2023-07-13T06:07:43;8.80;;;2.80;;
68947;SDS011;55996;49.546;7.400;2023-07-13T06:10:08;7.30;;;2.50;;
68947;SDS011;55996;49.546;7.400;2023-07-13T06:12:34;10.37;;;2.53;;
68947;SDS011;55996;49.546;7.400;2023-07-13T06:15:00;7.50;;;2.43;;
68947;SDS011;55996;49.546;7.400;2023-07-13T06:17:25;4.33;;;2.50;;
68947;SDS011;55996;49.546;7.400;2023-07-13T06:19:51;9.43;;;2.50;;
68947;SDS011;55996;49.546;7.400;2023-07-13T06:22:16;11.17;;;2.47;;
68947;SDS011;55996;49.546;7.400;2023-07-13T06:24:42;7.83;;;2.70;;
68947;SDS011;55996;49.546;7.400;2023-07-13T06:27:07;6.40;;;2.50;;
68947;SDS011;55996;49.546;7.400;2023-07-13T06:29:32;5.87;;;2.07;;
68947;SDS011;55996;49.546;7.400;2023-07-13T06:31:58;9.00;;;2.20;;
68947;SDS011;55996;49.546;7.400;2023-07-13T06:34:23;7.63;;;1.83;;
68947;SDS011;55996;49.546;7.400;2023-07-13T06:36:49;6.17;;;1.83;;
68947;SDS011;55996;49.546;7.400;2023-07-13T06:39:14;9.37;;;2.03;;
68947;SDS011;55996;49.546;7.400;2023-07-13T06:41:40;4.77;;;1.90;;
68947;SDS011;55996;49.546;7.400;2023-07-13T06:44:05;6.40;;;1.63;;
68947;SDS011;55996;49.546;7.400;2023-07-13T06:46:31;6.07;;;1.73;;
68947;SDS011;55996;49.546;7.400;2023-07-13T06:48:57;3.17;;;1.80;;
68947;SDS011;55996;49.546;7.400;2023-07-13T06:51:22;6.10;;;1.90;;
68947;SDS011;55996;49.546;7.400;2023-07-13T06:53:48;5.03;;;1.70;;
68947;SDS011;55996;49.546;7.400;2023-07-13T06:56:15;4.63;;;1.70;;
68947;SDS011;55996;49.546;7.400;2023-07-13T06:58:40;8.97;;;1.50;;
68947;SDS011;55996;49.546;7.400;2023-07-13T07:01:06;3.70;;;1.67;;
68947;SDS011;55996;49.546;7.400;2023-07-13T07:03:32;2.17;;;1.40;;
68947;SDS011;55996;49.546;7.400;2023-07-13T07:06:03;4.03;;;1.50;;
68947;SDS011;55996;49.546;7.400;2023-07-13T07:08:37;3.00;;;1.53;;
68947;SDS011;55996;49.546;7.400;2023-07-13T07:11:02;4.80;;;1.40;;
68947;SDS011;55996;49.546;7.400;2023-07-13T07:13:28;3.47;;;1.57;;
68947;SDS011;55996;49.546;7.400;2023-07-13T07:15:54;3.13;;;1.23;;
68947;SDS011;55996;49.546;7.400;2023-07-13T07:18:20;2.90;;;1.40;;
68947;SDS011;55996;49.546;7.400;2023-07-13T07:20:45;5.47;;;2.20;;
68947;SDS011;55996;49.546;7.400;2023-07-13T07:23:10;5.53;;;1.67;;
68947;SDS011;55996;49.546;7.400;2023-07-13T07:25:36;6.20;;;1.73;;
68947;SDS011;55996;49.546;7.400;2023-07-13T07:28:06;3.33;;;1.57;;
68947;SDS011;55996;49.546;7.400;2023-07-13T07:30:32;3.70;;;1.43;;
68947;SDS011;55996;49.546;7.400;2023-07-13T07:32:58;3.93;;;1.53;;
68947;SDS011;55996;49.546;7.400;2023-07-13T07:35:23;4.57;;;1.50;;
68947;SDS011;55996;49.546;7.400;2023-07-13T07:37:49;4.90;;;1.40;;
68947;SDS011;55996;49.546;7.400;2023-07-13T07:40:14;3.67;;;1.60;;
68947;SDS011;55996;49.546;7.400;2023-07-13T07:42:40;3.10;;;1.67;;
68947;SDS011;55996;49.546;7.400;2023-07-13T07:45:05;3.40;;;1.40;;
68947;SDS011;55996;49.546;7.400;2023-07-13T07:47:31;5.13;;;1.80;;
68947;SDS011;55996;49.546;7.400;2023-07-13T07:49:57;3.57;;;1.80;;
68947;SDS011;55996;49.546;7.400;2023-07-13T07:52:22;10.33;;;1.80;;
68947;SDS011;55996;49.546;7.400;2023-07-13T07:54:48;2.40;;;1.40;;
68947;SDS011;55996;49.546;7.400;2023-07-13T07:57:13;4.03;;;1.52;;
68947;SDS011;55996;49.546;7.400;2023-07-13T07:59:38;5.00;;;1.40;;
68947;SDS011;55996;49.546;7.400;2023-07-13T08:02:04;4.57;;;1.77;;
68947;SDS011;55996;49.546;7.400;2023-07-13T08:04:30;2.95;;;1.60;;
68947;SDS011;55996;49.546;7.400;2023-07-13T08:06:55;3.53;;;1.60;;
68947;SDS011;55996;49.546;7.400;2023-07-13T08:09:23;4.50;;;1.60;;
68947;SDS011;55996;49.546;7.400;2023-07-13T08:11:49;3.85;;;1.35;;
68947;SDS011;55996;49.546;7.400;2023-07-13T08:14:14;4.28;;;1.80;;
68947;SDS011;55996;49.546;7.400;2023-07-13T08:16:41;6.32;;;1.50;;
68947;SDS011;55996;49.546;7.400;2023-07-13T08:19:06;3.10;;;1.63;;
68947;SDS011;55996;49.546;7.400;2023-07-13T08:21:32;4.60;;;1.80;;
68947;SDS011;55996;49.546;7.400;2023-07-13T08:23:57;2.42;;;1.45;;
68947;SDS011;55996;49.546;7.400;2023-07-13T08:26:23;3.28;;;1.67;;
68947;SDS011;55996;49.546;7.400;2023-07-13T08:28:48;3.90;;;1.70;;
68947;SDS011;55996;49.546;7.400;2023-07-13T08:31:14;4.00;;;1.55;;
68947;SDS011;55996;49.546;7.400;2023-07-13T08:33:40;4.13;;;1.42;;
68947;SDS011;55996;49.546;7.400;2023-07-13T08:36:06;3.35;;;1.70;;
68947;SDS011;55996;49.546;7.400;2023-07-13T08:38:32;4.55;;;1.60;;
68947;SDS011;55996;49.546;7.400;2023-07-13T08:40:57;3.22;;;1.50;;
68947;SDS011;55996;49.546;7.400;2023-07-13T08:43:27;3.72;;;1.63;;
68947;SDS011;55996;49.546;7.400;2023-07-13T08:46:38;3.70;;;1.60;;
68947;SDS011;55996;49.546;7.400;2023-07-13T08:48:50;3.58;;;1.52;;
68947;SDS011;55996;49.546;7.400;2023-07-13T08:54:03;6.18;;;1.80;;
68947;SDS011;55996;49.546;7.400;2023-07-13T08:56:34;3.78;;;1.55;;
68947;SDS011;55996;49.546;7.400;2023-07-13T08:59:01;3.95;;;1.85;;
68947;SDS011;55996;49.546;7.400;2023-07-13T09:04:21;6.72;;;1.58;;
68947;SDS011;55996;49.546;7.400;2023-07-13T09:17:56;2.75;;;1.42;;
68947;SDS011;55996;49.546;7.400;2023-07-13T09:20:31;3.95;;;1.50;;
68947;SDS011;55996;49.546;7.400;2023-07-13T09:23:15;4.28;;;1.60;;
68947;SDS011;55996;49.546;7.400;2023-07-13T09:25:45;3.60;;;1.50;;
68947;SDS011;55996;49.546;7.400;2023-07-13T09:28:15;3.70;;;1.45;;
68947;SDS011;55996;49.546;7.400;2023-07-13T09:33:16;3.13;;;1.30;;
68947;SDS011;55996;49.546;7.400;2023-07-13T09:35:42;4.22;;;1.30;;
68947;SDS011;55996;49.546;7.400;2023-07-13T09:38:14;3.03;;;1.55;;
68947;SDS011;55996;49.546;7.400;2023-07-13T09:43:16;4.35;;;1.70;;
68947;SDS011;55996;49.546;7.400;2023-07-13T09:45:45;5.25;;;1.38;;
68947;SDS011;55996;49.546;7.400;2023-07-13T09:48:13;4.55;;;1.70;;
68947;SDS011;55996;49.546;7.400;2023-07-13T09:50:40;6.15;;;1.80;;
68947;SDS011;55996;49.546;7.400;2023-07-13T09:53:13;2.47;;;1.33;;
68947;SDS011;55996;49.546;7.400;2023-07-13T09:55:40;2.83;;;1.50;;
68947;SDS011;55996;49.546;7.400;2023-07-13T09:58:16;3.03;;;1.33;;
68947;SDS011;55996;49.546;7.400;2023-07-13T10:00:58;4.07;;;1.73;;
68947;SDS011;55996;49.546;7.400;2023-07-13T10:03:28;3.80;;;1.63;;
68947;SDS011;55996;49.546;7.400;2023-07-13T10:08:44;4.18;;;1.50;;
68947;SDS011;55996;49.546;7.400;2023-07-13T10:13:55;3.70;;;1.67;;
68947;SDS011;55996;49.546;7.400;2023-07-13T10:16:23;3.65;;;1.50;;
68947;SDS011;55996;49.546;7.400;2023-07-13T10:18:52;7.43;;;1.80;;
68947;SDS011;55996;49.546;7.400;2023-07-13T10:21:23;4.82;;;1.90;;
68947;SDS011;55996;49.546;7.400;2023-07-13T10:23:57;3.30;;;1.65;;
68947;SDS011;55996;49.546;7.400;2023-07-13T10:26:32;4.22;;;1.60;;
68947;SDS011;55996;49.546;7.400;2023-07-13T10:29:03;2.80;;;1.60;;
68947;SDS011;55996;49.546;7.400;2023-07-13T10:31:34;4.07;;;2.00;;
68947;SDS011;55996;49.546;7.400;2023-07-13T10:34:03;3.47;;;1.92;;
68947;SDS011;55996;49.546;7.400;2023-07-13T10:36:43;4.90;;;1.50;;
68947;SDS011;55996;49.546;7.400;2023-07-13T10:39:19;3.40;;;1.67;;
68947;SDS011;55996;49.546;7.400;2023-07-13T10:42:04;2.55;;;1.60;;
68947;SDS011;55996;49.546;7.400;2023-07-13T10:44:32;3.13;;;1.80;;
68947;SDS011;55996;49.546;7.400;2023-07-13T10:46:59;3.58;;;1.90;;
68947;SDS011;55996;49.546;7.400;2023-07-13T10:49:33;8.15;;;1.83;;
68947;SDS011;55996;49.546;7.400;2023-07-13T10:52:00;5.30;;;1.90;;
68947;SDS011;55996;49.546;7.400;2023-07-13T11:02:43;3.72;;;1.58;;
68947;SDS011;55996;49.546;7.400;2023-07-13T11:07:54;3.17;;;1.50;;
68947;SDS011;55996;49.546;7.400;2023-07-13T11:13:35;4.32;;;1.80;;
68947;SDS011;55996;49.546;7.400;2023-07-13T11:16:01;6.18;;;1.83;;
68947;SDS011;55996;49.546;7.400;2023-07-13T11:18:38;3.10;;;1.60;;
68947;SDS011;55996;49.546;7.400;2023-07-13T11:21:14;4.28;;;1.52;;
68947;SDS011;55996;49.546;7.400;2023-07-13T11:23:42;3.63;;;1.63;;
68947;SDS011;55996;49.546;7.400;2023-07-13T11:31:56;3.75;;;1.80;;
68947;SDS011;55996;49.546;7.400;2023-07-13T11:34:26;4.32;;;1.63;;
68947;SDS011;55996;49.546;7.400;2023-07-13T11:36:56;1.98;;;1.50;;
68947;SDS011;55996;49.546;7.400;2023-07-13T11:39:37;1.95;;;1.50;;
68947;SDS011;55996;49.546;7.400;2023-07-13T11:42:11;3.10;;;1.45;;
68947;SDS011;55996;49.546;7.400;2023-07-13T11:44:47;2.53;;;1.70;;
68947;SDS011;55996;49.546;7.400;2023-07-13T11:47:18;4.45;;;2.00;;
68947;SDS011;55996;49.546;7.400;2023-07-13T11:49:50;2.13;;;1.60;;
68947;SDS011;55996;49.546;7.400;2023-07-13T11:52:21;5.30;;;1.70;;
68947;SDS011;55996;49.546;7.400;2023-07-13T11:54:54;3.92;;;1.65;;
68947;SDS011;55996;49.546;7.400;2023-07-13T11:57:31;4.90;;;1.42;;
68947;SDS011;55996;49.546;7.400;2023-07-13T11:59:59;2.05;;;1.30;;
68947;SDS011;55996;49.546;7.400;2023-07-13T12:02:32;4.47;;;1.50;;
68947;SDS011;55996;49.546;7.400;2023-07-13T12:05:01;5.28;;;1.67;;
68947;SDS011;55996;49.546;7.400;2023-07-13T12:07:29;2.83;;;1.40;;
68947;SDS011;55996;49.546;7.400;2023-07-13T12:10:30;4.90;;;1.42;;
68947;SDS011;55996;49.546;7.400;2023-07-13T12:12:58;4.82;;;1.63;;
68947;SDS011;55996;49.546;7.400;2023-07-13T12:15:37;6.32;;;2.13;;
68947;SDS011;55996;49.546;7.400;2023-07-13T12:18:15;2.05;;;1.27;;
68947;SDS011;55996;49.546;7.400;2023-07-13T12:20:44;3.58;;;1.40;;
68947;SDS011;55996;49.546;7.400;2023-07-13T12:23:32;6.43;;;1.80;;
68947;SDS011;55996;49.546;7.400;2023-07-13T12:25:58;5.13;;;1.85;;
68947;SDS011;55996;49.546;7.400;2023-07-13T12:28:33;3.97;;;1.88;;
68947;SDS011;55996;49.546;7.400;2023-07-13T12:31:03;3.67;;;1.52;;
68947;SDS011;55996;49.546;7.400;2023-07-13T12:33:31;5.18;;;1.75;;
68947;SDS011;55996;49.546;7.400;2023-07-13T12:35:58;2.83;;;1.42;;
68947;SDS011;55996;49.546;7.400;2023-07-13T12:38:27;3.40;;;1.83;;
68947;SDS011;55996;49.546;7.400;2023-07-13T12:40:53;5.50;;;1.80;;
68947;SDS011;55996;49.546;7.400;2023-07-13T12:43:22;7.72;;;1.88;;
68947;SDS011;55996;49.546;7.400;2023-07-13T12:48:20;3.75;;;1.42;;
68947;SDS011;55996;49.546;7.400;2023-07-13T12:50:47;3.72;;;1.40;;
68947;SDS011;55996;49.546;7.400;2023-07-13T12:53:38;6.53;;;1.40;;
68947;SDS011;55996;49.546;7.400;2023-07-13T12:56:04;2.47;;;1.48;;
68947;SDS011;55996;49.546;7.400;2023-07-13T12:58:36;2.58;;;1.20;;
68947;SDS011;55996;49.546;7.400;2023-07-13T13:01:04;6.18;;;1.50;;
68947;SDS011;55996;49.546;7.400;2023-07-13T13:08:40;2.35;;;1.38;;
68947;SDS011;55996;49.546;7.400;2023-07-13T13:11:08;6.55;;;1.70;;
68947;SDS011;55996;49.546;7.400;2023-07-13T13:13:34;4.25;;;1.58;;
68947;SDS011;55996;49.546;7.400;2023-07-13T13:18:42;3.38;;;1.45;;
68947;SDS011;55996;49.546;7.400;2023-07-13T13:21:11;4.75;;;1.40;;
68947;SDS011;55996;49.546;7.400;2023-07-13T13:23:37;4.47;;;1.42;;
68947;SDS011;55996;49.546;7.400;2023-07-13T13:26:02;3.90;;;1.60;;
68947;SDS011;55996;49.546;7.400;2023-07-13T13:28:31;3.00;;;1.30;;
68947;SDS011;55996;49.546;7.400;2023-07-13T13:30:57;11.70;;;1.98;;
68947;SDS011;55996;49.546;7.400;2023-07-13T13:33:22;2.78;;;1.33;;
68947;SDS011;55996;49.546;7.400;2023-07-13T13:35:48;3.45;;;1.45;;
68947;SDS011;55996;49.546;7.400;2023-07-13T13:38:19;3.45;;;1.60;;
68947;SDS011;55996;49.546;7.400;2023-07-13T13:40:48;2.80;;;1.35;;
68947;SDS011;55996;49.546;7.400;2023-07-13T13:43:15;4.35;;;1.52;;
68947;SDS011;55996;49.546;7.400;2023-07-13T13:45:44;3.97;;;1.40;;
68947;SDS011;55996;49.546;7.400;2023-07-13T13:48:15;5.05;;;1.50;;
68947;SDS011;55996;49.546;7.400;2023-07-13T13:50:43;5.57;;;1.55;;
68947;SDS011;55996;49.546;7.400;2023-07-13T13:53:12;3.10;;;1.33;;
68947;SDS011;55996;49.546;7.400;2023-07-13T13:55:39;3.83;;;1.30;;
68947;SDS011;55996;49.546;7.400;2023-07-13T13:58:09;3.90;;;1.60;;
68947;SDS011;55996;49.546;7.400;2023-07-13T14:00:36;2.10;;;1.08;;
68947;SDS011;55996;49.546;7.400;2023-07-13T14:03:03;5.72;;;1.70;;
68947;SDS011;55996;49.546;7.400;2023-07-13T14:05:29;6.05;;;1.70;;
68947;SDS011;55996;49.546;7.400;2023-07-13T14:07:55;4.70;;;1.38;;
68947;SDS011;55996;49.546;7.400;2023-07-13T14:10:22;6.18;;;1.60;;
68947;SDS011;55996;49.546;7.400;2023-07-13T14:12:50;1.95;;;1.30;;
68947;SDS011;55996;49.546;7.400;2023-07-13T14:15:21;2.55;;;1.23;;
68947;SDS011;55996;49.546;7.400;2023-07-13T14:17:49;3.33;;;1.42;;
68947;SDS011;55996;49.546;7.400;2023-07-13T14:20:15;3.42;;;1.48;;
68947;SDS011;55996;49.546;7.400;2023-07-13T14:22:42;3.92;;;1.65;;
68947;SDS011;55996;49.546;7.400;2023-07-13T14:25:11;4.07;;;1.42;;
68947;SDS011;55996;49.546;7.400;2023-07-13T14:27:38;3.58;;;1.23;;
68947;SDS011;55996;49.546;7.400;2023-07-13T14:30:08;4.07;;;1.52;;
68947;SDS011;55996;49.546;7.400;2023-07-13T14:32:38;6.28;;;1.25;;
68947;SDS011;55996;49.546;7.400;2023-07-13T14:35:03;3.75;;;1.48;;
68947;SDS011;55996;49.546;7.400;2023-07-13T14:37:29;4.55;;;1.60;;
68947;SDS011;55996;49.546;7.400;2023-07-13T14:39:55;3.75;;;1.48;;
68947;SDS011;55996;49.546;7.400;2023-07-13T14:42:20;4.00;;;1.60;;
68947;SDS011;55996;49.546;7.400;2023-07-13T14:44:46;2.33;;;1.08;;
68947;SDS011;55996;49.546;7.400;2023-07-13T14:47:11;4.45;;;1.52;;
68947;SDS011;55996;49.546;7.400;2023-07-13T14:49:38;1.65;;;1.27;;
68947;SDS011;55996;49.546;7.400;2023-07-13T14:52:19;2.72;;;1.50;;
68947;SDS011;55996;49.546;7.400;2023-07-13T14:54:47;1.45;;;1.20;;
68947;SDS011;55996;49.546;7.400;2023-07-13T14:57:14;2.85;;;1.60;;
68947;SDS011;55996;49.546;7.400;2023-07-13T14:59:43;3.30;;;1.33;;
68947;SDS011;55996;49.546;7.400;2023-07-13T15:04:44;2.03;;;1.30;;
68947;SDS011;55996;49.546;7.400;2023-07-13T15:07:11;2.83;;;1.30;;
68947;SDS011;55996;49.546;7.400;2023-07-13T15:09:38;4.82;;;1.33;;
68947;SDS011;55996;49.546;7.400;2023-07-13T15:12:04;4.10;;;1.70;;
68947;SDS011;55996;49.546;7.400;2023-07-13T15:14:30;3.33;;;1.40;;
68947;SDS011;55996;49.546;7.400;2023-07-13T15:16:55;2.50;;;1.50;;
68947;SDS011;55996;49.546;7.400;2023-07-13T15:19:21;2.80;;;1.70;;
68947;SDS011;55996;49.546;7.400;2023-07-13T15:21:49;5.13;;;1.45;;
68947;SDS011;55996;49.546;7.400;2023-07-13T15:24:15;3.28;;;1.50;;
68947;SDS011;55996;49.546;7.400;2023-07-13T15:26:41;6.13;;;1.60;;
68947;SDS011;55996;49.546;7.400;2023-07-13T15:29:10;2.40;;;1.17;;
68947;SDS011;55996;49.546;7.400;2023-07-13T15:31:38;3.05;;;1.42;;
68947;SDS011;55996;49.546;7.400;2023-07-13T15:34:09;3.20;;;1.23;;
68947;SDS011;55996;49.546;7.400;2023-07-13T15:36:38;3.65;;;1.55;;
68947;SDS011;55996;49.546;7.400;2023-07-13T15:39:03;5.43;;;1.60;;
68947;SDS011;55996;49.546;7.400;2023-07-13T15:41:29;2.97;;;1.33;;
68947;SDS011;55996;49.546;7.400;2023-07-13T15:43:57;6.78;;;1.42;;
68947;SDS011;55996;49.546;7.400;2023-07-13T15:46:23;1.35;;;1.23;;
68947;SDS011;55996;49.546;7.400;2023-07-13T15:48:50;1.70;;;1.30;;
68947;SDS011;55996;49.546;7.400;2023-07-13T15:53:45;3.17;;;1.30;;
68947;SDS011;55996;49.546;7.400;2023-07-13T15:56:20;6.03;;;1.35;;